Pearl Of Scandinavia — OWFU2 — position and weather

sailwx.info

Track history (hours):
 
Tides and Currents Weather Stations Pressure Air Temp Water Temp Dewpoint Dewpoint Depression Visibility Wind Speed Wind Dir Waves Ship Positions

Pearl Of Scandinavia

Last reported at 2019-Mar-25 23:30 UTC. Time now 2019-Mar-25 23:55 UTC.
Position N 57°52' E 011°15'.

Length 176.4 m; beam 34 m; draft 6.215 m.

Type: Passenger vessel. MMSI: 219945000.

Date/timePositionNaut miles runAvg speedWind from/ knotsBaromVisibWave heightAir tempDewpointWater temp
2019-Mar-25 23:30N 57°52' E 011°15'917.4
2019-Mar-25 23:00N 58°00' E 011°11'816.5
2019-Mar-25 22:30N 58°08' E 011°06'816.5
2019-Mar-25 22:00N 58°16' E 011°02'815.8
2019-Mar-25 21:30N 58°24' E 010°58'815.6
2019-Mar-25 21:00N 58°31' E 010°54'815.7
2019-Mar-25 20:30N 58°39' E 010°48'815.4
2019-Mar-25 20:00N 58°46' E 010°45'816.2
2019-Mar-25 19:30N 58°54' E 010°44'917.0
2019-Mar-25 19:00N 59°03' E 010°41'917.2
2019-Mar-25 18:30N 59°11' E 010°38'917.4
2019-Mar-25 18:00N 59°20' E 010°35'917.2
2019-Mar-25 17:30N 59°28' E 010°34'816.6
2019-Mar-25 17:00N 59°36' E 010°38'714.0
2019-Mar-25 16:30N 59°43' E 010°34'816.0
2019-Mar-25 16:00N 59°51' E 010°36'510.9
2019-Mar-25 15:30N 59°54' E 010°45'0 0.0
2019-Mar-25 14:58N 59°54' E 010°45'0 0.0
2019-Mar-25 14:28N 59°54' E 010°45'0 0.0
2019-Mar-25 13:58N 59°54' E 010°45'0 0.0
2019-Mar-25 13:28N 59°54' E 010°45'0 0.0
2019-Mar-25 12:58N 59°54' E 010°45'0 0.0
2019-Mar-25 12:28N 59°54' E 010°45'0 0.0
2019-Mar-25 11:58N 59°54' E 010°45'0 0.0
2019-Mar-25 11:28N 59°54' E 010°45'0 0.0
2019-Mar-25 10:58N 59°54' E 010°45'0 0.0
2019-Mar-25 10:28N 59°54' E 010°45'0 0.0
2019-Mar-25 09:58N 59°54' E 010°45'0 0.0
2019-Mar-25 09:28N 59°54' E 010°45'0 0.0
2019-Mar-25 08:58N 59°54' E 010°45'0 0.6
2019-Mar-25 08:30N 59°54' E 010°44'714.8
2019-Mar-25 08:01N 59°48' E 010°35'815.0
2019-Mar-25 07:30N 59°41' E 010°37'713.8
2019-Mar-25 07:01N 59°34' E 010°38'815.2
2019-Mar-25 06:31N 59°27' E 010°34'815.1
2019-Mar-25 06:01N 59°19' E 010°36'815.4
2019-Mar-25 05:31N 59°12' E 010°39'815.3
2019-Mar-25 05:01N 59°04' E 010°40'816.0
2019-Mar-25 04:31N 58°56' E 010°41'815.2
2019-Mar-25 04:01N 58°49' E 010°42'815.0
2019-Mar-25 03:29N 58°41' E 010°46'815.9
2019-Mar-25 03:00N 58°34' E 010°50'816.0
2019-Mar-25 02:30N 58°26' E 010°55'816.3
2019-Mar-25 02:00N 58°18' E 011°00'815.7
2019-Mar-25 01:30N 58°11' E 011°05'816.8
2019-Mar-25 01:01N 58°03' E 011°10'816.0
2019-Mar-25 00:31N 57°55' E 011°15'816.3
2019-Mar-25 00:01N 57°48' E 011°20'816.0
2019-Mar-24 23:31N 57°40' E 011°25'816.6
2019-Mar-24 23:01N 57°33' E 011°31'816.2
2019-Mar-24 22:31N 57°26' E 011°38'816.4
2019-Mar-24 22:01N 57°19' E 011°46'816.0
2019-Mar-24 21:31N 57°12' E 011°54'815.8
2019-Mar-24 21:01N 57°05' E 011°60'6016.0
2019-Mar-24 17:16N 56°07' E 012°33'416.6
2019-Mar-24 17:01N 56°04' E 012°38'816.4
2019-Mar-24 16:31N 55°57' E 012°43'816.1
2019-Mar-24 16:01N 55°49' E 012°43'714.0
2019-Mar-24 15:30N 55°42' E 012°37'1 1.1
2019-Mar-24 14:59N 55°42' E 012°36'0 0.0
2019-Mar-24 14:29N 55°42' E 012°36'0 0.0
2019-Mar-24 13:59N 55°42' E 012°36'0 0.0
2019-Mar-24 13:29N 55°42' E 012°36'0 0.0
2019-Mar-24 12:59N 55°42' E 012°36'0 0.0
2019-Mar-24 12:29N 55°42' E 012°36'0 0.0
2019-Mar-24 11:59N 55°42' E 012°36'0 0.0
2019-Mar-24 11:26N 55°42' E 012°36'0 0.0
2019-Mar-24 10:59N 55°42' E 012°36'0 0.0
2019-Mar-24 10:29N 55°42' E 012°36'0 0.0
2019-Mar-24 09:59N 55°42' E 012°36'0 0.0
2019-Mar-24 09:29N 55°42' E 012°36'0 0.0
2019-Mar-24 08:50N 55°42' E 012°36'0 1.0
2019-Mar-24 08:30N 55°42' E 012°36'611.6
2019-Mar-24 08:01N 55°47' E 012°42'815.0
2019-Mar-24 07:30N 55°55' E 012°39'815.2
2019-Mar-24 07:01N 56°02' E 012°39'815.6
2019-Mar-24 06:31N 56°08' E 012°30'815.9
2019-Mar-24 06:01N 56°15' E 012°25'6115.8
2019-Mar-24 02:09N 57°14' E 011°52'216.5
2019-Mar-24 02:01N 57°16' E 011°49'816.4
2019-Mar-24 01:31N 57°22' E 011°39'816.3
2019-Mar-24 01:01N 57°28' E 011°30'816.7
2019-Mar-24 00:31N 57°35' E 011°20'816.8
2019-Mar-24 00:01N 57°42' E 011°12'917.2
2019-Mar-23 23:30N 57°50' E 011°06'816.8
2019-Mar-23 23:01N 57°58' E 011°01'816.2
2019-Mar-23 22:31N 58°05' E 010°55'816.6
2019-Mar-23 22:00N 58°13' E 010°50'816.6
2019-Mar-23 21:30N 58°21' E 010°45'816.3
2019-Mar-23 21:00N 58°29' E 010°40'816.2
2019-Mar-23 20:30N 58°37' E 010°38'816.3
2019-Mar-23 20:00N 58°45' E 010°37'816.9
2019-Mar-23 19:30N 58°53' E 010°37'917.1
2019-Mar-23 19:00N 59°02' E 010°38'917.2
2019-Mar-23 18:30N 59°10' E 010°38'917.2
2019-Mar-23 18:00N 59°19' E 010°36'816.9
2019-Mar-23 17:31N 59°27' E 010°33'816.7
2019-Mar-23 17:01N 59°35' E 010°38'815.4
2019-Mar-23 16:30N 59°43' E 010°35'816.2
2019-Mar-23 16:00N 59°51' E 010°36'610.9
2019-Mar-23 15:30N 59°54' E 010°45'0 0.0
2019-Mar-23 14:59N 59°54' E 010°45'0 0.0
2019-Mar-23 14:29N 59°54' E 010°45'0 0.0
2019-Mar-23 13:59N 59°54' E 010°45'0 0.0
2019-Mar-23 13:29N 59°54' E 010°45'0 0.0
2019-Mar-23 12:59N 59°54' E 010°45'0 0.0
2019-Mar-23 12:29N 59°54' E 010°45'0 0.0
2019-Mar-23 11:59N 59°54' E 010°45'0 0.0
2019-Mar-23 11:29N 59°54' E 010°45'0 0.0
2019-Mar-23 10:59N 59°54' E 010°45'0 0.0
2019-Mar-23 10:29N 59°54' E 010°45'0 0.0
2019-Mar-23 09:59N 59°54' E 010°45'0 0.0
2019-Mar-23 09:29N 59°54' E 010°45'0 0.0
2019-Mar-23 08:59N 59°54' E 010°45'0 0.2
2019-Mar-23 08:30N 59°54' E 010°45'713.2
2019-Mar-23 08:01N 59°49' E 010°35'815.6
2019-Mar-23 07:30N 59°42' E 010°36'714.0
2019-Mar-23 07:00N 59°35' E 010°38'815.1
2019-Mar-23 06:30N 59°27' E 010°34'815.2
2019-Mar-23 06:00N 59°20' E 010°36'816.5
2019-Mar-23 05:30N 59°12' E 010°39'815.9
2019-Mar-23 05:00N 59°04' E 010°41'815.5
2019-Mar-23 04:30N 58°56' E 010°42'714.9
2019-Mar-23 04:00N 58°49' E 010°44'815.6
2019-Mar-23 03:30N 58°41' E 010°46'815.7
2019-Mar-23 03:00N 58°34' E 010°51'816.0
2019-Mar-23 02:30N 58°26' E 010°56'816.2
2019-Mar-23 02:00N 58°18' E 011°01'816.3
2019-Mar-23 01:30N 58°11' E 011°06'816.2
2019-Mar-23 01:00N 58°03' E 011°10'815.8
2019-Mar-23 00:30N 57°56' E 011°15'816.4
2019-Mar-23 00:00N 57°48' E 011°20'816.2
2019-Mar-22 23:30N 57°40' E 011°25'816.6
2019-Mar-22 23:00N 57°33' E 011°31'816.2
2019-Mar-22 22:30N 57°25' E 011°38'816.1
2019-Mar-22 22:00N 57°19' E 011°46'815.9
2019-Mar-22 21:30N 57°12' E 011°54'815.8
2019-Mar-22 21:00N 57°04' E 011°60'6016.6
2019-Mar-22 17:25N 56°08' E 012°32'718.1
2019-Mar-22 17:01N 56°02' E 012°40'917.1
2019-Mar-22 16:31N 55°54' E 012°44'816.3
2019-Mar-22 16:01N 55°46' E 012°41'5 9.7
2019-Mar-22 15:30N 55°42' E 012°36'0 0.0
2019-Mar-22 14:59N 55°42' E 012°36'0 0.0
2019-Mar-22 14:29N 55°42' E 012°36'0 0.0
2019-Mar-22 13:59N 55°42' E 012°36'0 0.0
2019-Mar-22 13:26N 55°42' E 012°36'0 0.0
2019-Mar-22 12:59N 55°42' E 012°36'0 0.0
2019-Mar-22 12:29N 55°42' E 012°36'0 0.0
2019-Mar-22 11:59N 55°42' E 012°36'0 0.0
2019-Mar-22 11:23N 55°42' E 012°36'0 0.0
2019-Mar-22 10:59N 55°42' E 012°36'0 0.0
2019-Mar-22 10:29N 55°42' E 012°36'0 0.0
2019-Mar-22 09:56N 55°42' E 012°36'0 0.0
2019-Mar-22 09:29N 55°42' E 012°36'0 0.0
2019-Mar-22 08:59N 55°42' E 012°36'0 0.8
2019-Mar-22 08:31N 55°42' E 012°36'510.4
2019-Mar-22 08:00N 55°47' E 012°41'714.7
2019-Mar-22 07:31N 55°54' E 012°39'815.0
2019-Mar-22 07:00N 56°01' E 012°40'713.3
2019-Mar-22 06:30N 56°07' E 012°32'713.8
2019-Mar-22 06:00N 56°13' E 012°27'5315.0
2019-Mar-22 02:27N 57°04' E 011°60'715.9
2019-Mar-22 02:00N 57°11' E 011°55'815.5
2019-Mar-22 01:31N 57°17' E 011°48'815.9
2019-Mar-22 01:00N 57°24' E 011°39'816.2
2019-Mar-22 00:30N 57°31' E 011°31'815.9
2019-Mar-22 00:00N 57°37' E 011°23'917.4
2019-Mar-21 23:30N 57°44' E 011°13'917.8
2019-Mar-21 23:01N 57°52' E 011°04'917.5
2019-Mar-21 22:31N 57°60' E 010°58'917.7
2019-Mar-21 22:00N 58°08' E 010°53'917.6
2019-Mar-21 21:30N 58°17' E 010°47'917.6
2019-Mar-21 21:00N 58°25' E 010°42'917.3
2019-Mar-21 20:30N 58°33' E 010°39'917.4
2019-Mar-21 20:00N 58°42' E 010°38'917.3
2019-Mar-21 19:30N 58°51' E 010°37'918.0
2019-Mar-21 19:00N 58°60' E 010°38'918.4
2019-Mar-21 18:30N 59°09' E 010°38'918.5
2019-Mar-21 18:00N 59°18' E 010°36'918.4
2019-Mar-21 17:30N 59°27' E 010°33'917.3
2019-Mar-21 17:00N 59°35' E 010°38'815.4
2019-Mar-21 16:30N 59°43' E 010°35'713.6
2019-Mar-21 16:00N 59°50' E 010°34'713.3
2019-Mar-21 15:30N 59°54' E 010°45'0 0.2
2019-Mar-21 14:58N 59°54' E 010°45'0 0.0
2019-Mar-21 14:28N 59°54' E 010°45'0 0.0
2019-Mar-21 13:58N 59°54' E 010°45'0 0.0
2019-Mar-21 13:28N 59°54' E 010°45'0 0.0
2019-Mar-21 12:58N 59°54' E 010°45'0 0.0
2019-Mar-21 12:28N 59°54' E 010°45'0 0.0
2019-Mar-21 11:58N 59°54' E 010°45'0 0.0
2019-Mar-21 11:28N 59°54' E 010°45'0 0.0
2019-Mar-21 10:58N 59°54' E 010°45'0 0.0
2019-Mar-21 10:28N 59°54' E 010°45'0 0.0
2019-Mar-21 09:58N 59°54' E 010°45'0 0.0
2019-Mar-21 09:28N 59°54' E 010°45'0 0.0
2019-Mar-21 09:00N 59°54' E 010°45'0 0.4
2019-Mar-21 08:30N 59°54' E 010°44'612.6
2019-Mar-21 08:00N 59°50' E 010°36'814.7
2019-Mar-21 07:30N 59°42' E 010°36'613.0
2019-Mar-21 07:00N 59°36' E 010°38'714.6
2019-Mar-21 06:30N 59°29' E 010°34'816.1
2019-Mar-21 06:00N 59°21' E 010°35'816.0
2019-Mar-21 05:30N 59°13' E 010°38'815.9
2019-Mar-21 05:00N 59°05' E 010°40'815.8
2019-Mar-21 04:30N 58°57' E 010°42'815.4
2019-Mar-21 04:00N 58°50' E 010°44'815.5
2019-Mar-21 03:30N 58°42' E 010°45'815.6
2019-Mar-21 03:00N 58°34' E 010°50'815.8
2019-Mar-21 02:30N 58°27' E 010°55'816.1
2019-Mar-21 02:00N 58°19' E 010°60'816.2
2019-Mar-21 01:30N 58°12' E 011°05'816.4
2019-Mar-21 01:00N 58°04' E 011°09'815.6
2019-Mar-21 00:30N 57°57' E 011°14'815.7
2019-Mar-21 00:00N 57°49' E 011°19'815.8
2019-Mar-20 23:30N 57°42' E 011°26'816.5
2019-Mar-20 23:00N 57°35' E 011°32'816.4
2019-Mar-20 22:30N 57°27' E 011°39'816.2
2019-Mar-20 22:00N 57°20' E 011°46'815.9
2019-Mar-20 21:30N 57°13' E 011°53'816.1
2019-Mar-20 21:00N 57°06' E 011°59'815.9
2019-Mar-20 20:30N 56°58' E 012°04'5516.2
2019-Mar-20 17:06N 56°06' E 012°35'217.2
2019-Mar-20 17:00N 56°05' E 012°37'816.6
2019-Mar-20 16:30N 55°57' E 012°43'817.0
2019-Mar-20 16:00N 55°49' E 012°43'714.3
2019-Mar-20 15:30N 55°42' E 012°36'0 0.7
2019-Mar-20 14:53N 55°42' E 012°36'0 0.0
2019-Mar-20 14:29N 55°42' E 012°36'0 0.0
2019-Mar-20 13:59N 55°42' E 012°36'0 0.0
2019-Mar-20 13:29N 55°42' E 012°36'0 0.0
2019-Mar-20 12:59N 55°42' E 012°36'0 0.0
2019-Mar-20 12:20N 55°42' E 012°36'0 0.0
2019-Mar-20 11:59N 55°42' E 012°36'0 0.0
2019-Mar-20 11:29N 55°42' E 012°36'0 0.0
2019-Mar-20 10:59N 55°42' E 012°36'0 0.0
2019-Mar-20 10:29N 55°42' E 012°36'0 0.0
2019-Mar-20 09:59N 55°42' E 012°36'0 0.0
2019-Mar-20 09:29N 55°42' E 012°36'0 0.0
2019-Mar-20 08:59N 55°42' E 012°36'0 0.7
2019-Mar-20 08:30N 55°42' E 012°36'5 9.3
2019-Mar-20 08:00N 55°46' E 012°41'713.4
2019-Mar-20 07:30N 55°53' E 012°40'714.4
2019-Mar-20 07:00N 55°60' E 012°40'714.3
2019-Mar-20 06:30N 56°06' E 012°33'814.8
2019-Mar-20 06:00N 56°13' E 012°27'6416.3
2019-Mar-20 02:06N 57°13' E 011°53'217.1
2019-Mar-20 02:00N 57°15' E 011°51'917.1
2019-Mar-20 01:30N 57°22' E 011°42'917.2
2019-Mar-20 01:00N 57°29' E 011°33'817.0
2019-Mar-20 00:30N 57°36' E 011°24'816.9
2019-Mar-20 00:00N 57°42' E 011°14'816.7
2019-Mar-19 23:30N 57°49' E 011°05'816.3
2019-Mar-19 23:00N 57°57' E 011°00'816.6
2019-Mar-19 22:30N 58°05' E 010°55'816.7
2019-Mar-19 22:00N 58°13' E 010°50'816.6
2019-Mar-19 21:29N 58°21' E 010°45'816.3
2019-Mar-19 21:00N 58°28' E 010°40'816.1
2019-Mar-19 20:30N 58°36' E 010°39'816.2
2019-Mar-19 20:00N 58°44' E 010°37'816.4
2019-Mar-19 19:30N 58°53' E 010°37'917.1
2019-Mar-19 19:00N 59°01' E 010°38'917.2
2019-Mar-19 18:30N 59°10' E 010°38'917.4
2019-Mar-19 18:00N 59°18' E 010°36'917.3
2019-Mar-19 17:31N 59°27' E 010°33'816.7
2019-Mar-19 17:00N 59°35' E 010°38'815.1
2019-Mar-19 16:30N 59°42' E 010°35'815.9
2019-Mar-19 16:01N 59°50' E 010°35'612.3
2019-Mar-19 15:30N 59°54' E 010°45'0 0.1
2019-Mar-19 15:00N 59°54' E 010°45'0 0.0
2019-Mar-19 14:29N 59°54' E 010°45'0 0.0
2019-Mar-19 13:59N 59°54' E 010°45'0 0.0
2019-Mar-19 13:29N 59°54' E 010°45'0 0.0
2019-Mar-19 12:59N 59°54' E 010°45'0 0.0
2019-Mar-19 12:29N 59°54' E 010°45'0 0.0
2019-Mar-19 11:59N 59°54' E 010°45'0 0.0
2019-Mar-19 11:29N 59°54' E 010°45'0 0.0
2019-Mar-19 10:59N 59°54' E 010°45'0 0.0
2019-Mar-19 10:29N 59°54' E 010°45'0 0.0
2019-Mar-19 09:59N 59°54' E 010°45'0 0.0
2019-Mar-19 09:29N 59°54' E 010°45'0 0.0
2019-Mar-19 08:59N 59°54' E 010°45'0 0.3
2019-Mar-19 08:30N 59°54' E 010°45'612.6
2019-Mar-19 08:01N 59°50' E 010°36'815.2
2019-Mar-19 07:30N 59°42' E 010°36'612.7
2019-Mar-19 07:00N 59°36' E 010°38'713.4
2019-Mar-19 06:30N 59°29' E 010°35'713.4
2019-Mar-19 06:00N 59°23' E 010°35'713.3
2019-Mar-19 05:30N 59°16' E 010°37'713.6
2019-Mar-19 05:00N 59°10' E 010°39'713.7
2019-Mar-19 04:31N 59°03' E 010°40'714.1
2019-Mar-19 04:00N 58°56' E 010°41'815.1
2019-Mar-19 03:30N 58°48' E 010°42'815.9
2019-Mar-19 03:00N 58°40' E 010°46'816.8
2019-Mar-19 02:30N 58°33' E 010°51'918.1
2019-Mar-19 02:00N 58°24' E 010°57'918.5
2019-Mar-19 01:31N 58°15' E 011°03'918.2
2019-Mar-19 01:00N 58°07' E 011°09'917.9
2019-Mar-19 00:30N 57°58' E 011°13'917.5
2019-Mar-19 00:01N 57°50' E 011°19'816.9
2019-Mar-18 23:31N 57°42' E 011°25'917.3
2019-Mar-18 23:00N 57°34' E 011°32'917.5
2019-Mar-18 22:30N 57°26' E 011°39'917.5
2019-Mar-18 22:00N 57°19' E 011°46'917.3
2019-Mar-18 21:30N 57°11' E 011°54'917.4
2019-Mar-18 21:00N 57°03' E 011°59'5816.9
2019-Mar-18 17:34N 56°07' E 012°33'115.8
2019-Mar-18 17:30N 56°07' E 012°34'714.2
2019-Mar-18 17:00N 56°01' E 012°41'714.1
2019-Mar-18 16:30N 55°54' E 012°44'714.7
2019-Mar-18 16:00N 55°47' E 012°42'611.9
2019-Mar-18 15:30N 55°42' E 012°36'0 0.2
2019-Mar-18 14:57N 55°42' E 012°36'0 0.0
2019-Mar-18 14:27N 55°42' E 012°36'0 0.0
2019-Mar-18 13:57N 55°42' E 012°36'0 0.0
2019-Mar-18 13:27N 55°42' E 012°36'0 0.0
2019-Mar-18 12:57N 55°42' E 012°36'0 0.0
2019-Mar-18 12:27N 55°42' E 012°36'0 0.0
2019-Mar-18 11:57N 55°42' E 012°36'0 0.0
2019-Mar-18 11:27N 55°42' E 012°36'0 0.0
2019-Mar-18 10:57N 55°42' E 012°36'0 0.0
2019-Mar-18 10:27N 55°42' E 012°36'0 0.0
2019-Mar-18 09:57N 55°42' E 012°36'0 0.0
2019-Mar-18 09:27N 55°42' E 012°36'0 0.7
2019-Mar-18 09:00N 55°42' E 012°36'612.2
2019-Mar-18 08:31N 55°48' E 012°42'815.0
2019-Mar-18 08:01N 55°55' E 012°39'917.1
2019-Mar-18 07:31N 56°03' E 012°39'917.1
2019-Mar-18 07:00N 56°10' E 012°29'6719.0
2019-Mar-18 03:30N 57°14' E 011°52'1019.7
2019-Mar-18 03:00N 57°21' E 011°41'1019.7
2019-Mar-18 02:31N 57°28' E 011°29'1019.0
2019-Mar-18 02:01N 57°35' E 011°16'918.7
2019-Mar-18 01:31N 57°42' E 011°04'918.9
2019-Mar-18 01:01N 57°49' E 010°52'816.9
2019-Mar-18 00:31N 57°57' E 010°47'816.1
2019-Mar-18 00:00N 58°05' E 010°45'815.6
2019-Mar-17 23:30N 58°12' E 010°42'815.5
2019-Mar-17 23:00N 58°20' E 010°39'815.3
2019-Mar-17 22:30N 58°28' E 010°37'714.4
2019-Mar-17 22:00N 58°35' E 010°35'713.3
2019-Mar-17 21:30N 58°41' E 010°36'713.6
2019-Mar-17 21:00N 58°48' E 010°37'713.6
2019-Mar-17 20:30N 58°55' E 010°38'714.0
2019-Mar-17 20:00N 59°02' E 010°38'713.8
2019-Mar-17 19:31N 59°09' E 010°38'611.1
2019-Mar-17 19:01N 59°14' E 010°37'611.6
2019-Mar-17 18:31N 59°20' E 010°35'611.7
2019-Mar-17 18:01N 59°26' E 010°33'611.6
2019-Mar-17 17:31N 59°31' E 010°35'611.8
2019-Mar-17 17:00N 59°37' E 010°37'612.3
2019-Mar-17 16:30N 59°43' E 010°34'612.9
2019-Mar-17 16:00N 59°50' E 010°34'612.7
2019-Mar-17 15:30N 59°54' E 010°44'0 0.9
2019-Mar-17 15:00N 59°54' E 010°45'0 0.0
2019-Mar-17 14:30N 59°54' E 010°45'0 0.0
2019-Mar-17 14:00N 59°54' E 010°45'0 0.0
2019-Mar-17 13:30N 59°54' E 010°45'0 0.0
2019-Mar-17 13:00N 59°54' E 010°45'0 0.0
2019-Mar-17 12:30N 59°54' E 010°45'0 0.0
2019-Mar-17 12:00N 59°54' E 010°45'0 0.0
2019-Mar-17 11:30N 59°54' E 010°45'0 0.0
2019-Mar-17 11:00N 59°54' E 010°45'0 0.0
2019-Mar-17 10:30N 59°54' E 010°45'0 0.0
2019-Mar-17 10:00N 59°54' E 010°45'0 0.0
2019-Mar-17 09:30N 59°54' E 010°45'0 0.0
2019-Mar-17 09:00N 59°54' E 010°45'0 0.3
2019-Mar-17 08:30N 59°54' E 010°44'613.1
2019-Mar-17 08:00N 59°49' E 010°35'815.2
2019-Mar-17 07:30N 59°42' E 010°36'714.5
2019-Mar-17 07:00N 59°35' E 010°38'816.1
2019-Mar-17 06:30N 59°27' E 010°34'816.2
2019-Mar-17 06:00N 59°19' E 010°36'815.9
2019-Mar-17 05:30N 59°11' E 010°39'815.3
2019-Mar-17 05:00N 59°04' E 010°41'815.3
2019-Mar-17 04:30N 58°56' E 010°42'816.0
2019-Mar-17 04:00N 58°48' E 010°44'816.3
2019-Mar-17 03:30N 58°40' E 010°47'917.1
2019-Mar-17 03:00N 58°32' E 010°52'917.1
2019-Mar-17 02:30N 58°24' E 010°57'816.7
2019-Mar-17 02:00N 58°16' E 011°02'816.3
2019-Mar-17 01:30N 58°08' E 011°07'917.6
2019-Mar-17 01:00N 57°60' E 011°12'816.9
2019-Mar-17 00:30N 57°52' E 011°18'815.6
2019-Mar-17 00:00N 57°45' E 011°23'816.0
2019-Mar-16 23:30N 57°38' E 011°30'816.5
2019-Mar-16 23:00N 57°30' E 011°37'816.5
2019-Mar-16 22:30N 57°23' E 011°44'816.0
2019-Mar-16 22:00N 57°16' E 011°51'816.5
2019-Mar-16 21:30N 57°08' E 011°56'5916.0
2019-Mar-16 17:48N 56°11' E 012°29'516.5
2019-Mar-16 17:30N 56°07' E 012°33'815.4
2019-Mar-16 17:00N 56°01' E 012°41'815.4
2019-Mar-16 16:30N 55°53' E 012°44'815.2
2019-Mar-16 16:00N 55°46' E 012°42'5 1.9
2019-Mar-16 13:27N 55°42' E 012°36'0 0.0
2019-Mar-16 12:57N 55°42' E 012°36'0 0.0
2019-Mar-16 12:27N 55°42' E 012°36'0 0.0
2019-Mar-16 11:51N 55°42' E 012°36'0 0.0
2019-Mar-16 10:57N 55°42' E 012°36'0 0.0
2019-Mar-16 09:48N 55°42' E 012°36'0 0.0
2019-Mar-16 09:09N 55°42' E 012°36'0 0.0
2019-Mar-16 08:57N 55°42' E 012°36'0 0.7
2019-Mar-16 08:30N 55°42' E 012°36'510.3
2019-Mar-16 08:00N 55°47' E 012°41'714.8
2019-Mar-16 07:30N 55°54' E 012°39'815.6
2019-Mar-16 07:00N 56°02' E 012°39'815.5
2019-Mar-16 06:30N 56°08' E 012°30'916.1
2019-Mar-16 05:56N 56°16' E 012°24'6016.2
2019-Mar-16 02:15N 57°14' E 011°54'417.1
2019-Mar-16 02:00N 57°17' E 011°50'816.8
2019-Mar-16 01:30N 57°25' E 011°42'816.2
2019-Mar-16 01:00N 57°32' E 011°36'815.9
2019-Mar-16 00:30N 57°39' E 011°29'816.2
2019-Mar-16 00:00N 57°46' E 011°21'917.4
2019-Mar-15 23:30N 57°53' E 011°13'  
Track history (hours):
 
Tides and Currents Weather Stations Pressure Air Temp Water Temp Dewpoint Dewpoint Depression Visibility Wind Speed Wind Dir Waves Ship Positions

Pearl Of Scandinavia

Last reported at 2019-Mar-25 23:30 UTC. Time now 2019-Mar-25 23:55 UTC.
Position N 57°52' E 011°15'.

Length 176.4 m; beam 34 m; draft 6.215 m.

Type: Passenger vessel. MMSI: 219945000.

Date/timePositionNaut miles runAvg speedWind from/ knotsBaromVisibWave heightAir tempDewpointWater temp
2019-Mar-25 23:30N 57°52' E 011°15'917.4
2019-Mar-25 23:00N 58°00' E 011°11'816.5
2019-Mar-25 22:30N 58°08' E 011°06'816.5
2019-Mar-25 22:00N 58°16' E 011°02'815.8
2019-Mar-25 21:30N 58°24' E 010°58'815.6
2019-Mar-25 21:00N 58°31' E 010°54'815.7
2019-Mar-25 20:30N 58°39' E 010°48'815.4
2019-Mar-25 20:00N 58°46' E 010°45'816.2
2019-Mar-25 19:30N 58°54' E 010°44'917.0
2019-Mar-25 19:00N 59°03' E 010°41'917.2
2019-Mar-25 18:30N 59°11' E 010°38'917.4
2019-Mar-25 18:00N 59°20' E 010°35'917.2
2019-Mar-25 17:30N 59°28' E 010°34'816.6
2019-Mar-25 17:00N 59°36' E 010°38'714.0
2019-Mar-25 16:30N 59°43' E 010°34'816.0
2019-Mar-25 16:00N 59°51' E 010°36'510.9
2019-Mar-25 15:30N 59°54' E 010°45'0 0.0
2019-Mar-25 14:58N 59°54' E 010°45'0 0.0
2019-Mar-25 14:28N 59°54' E 010°45'0 0.0
2019-Mar-25 13:58N 59°54' E 010°45'0 0.0
2019-Mar-25 13:28N 59°54' E 010°45'0 0.0
2019-Mar-25 12:58N 59°54' E 010°45'0 0.0
2019-Mar-25 12:28N 59°54' E 010°45'0 0.0
2019-Mar-25 11:58N 59°54' E 010°45'0 0.0
2019-Mar-25 11:28N 59°54' E 010°45'0 0.0
2019-Mar-25 10:58N 59°54' E 010°45'0 0.0
2019-Mar-25 10:28N 59°54' E 010°45'0 0.0
2019-Mar-25 09:58N 59°54' E 010°45'0 0.0
2019-Mar-25 09:28N 59°54' E 010°45'0 0.0
2019-Mar-25 08:58N 59°54' E 010°45'0 0.6
2019-Mar-25 08:30N 59°54' E 010°44'714.8
2019-Mar-25 08:01N 59°48' E 010°35'815.0
2019-Mar-25 07:30N 59°41' E 010°37'713.8
2019-Mar-25 07:01N 59°34' E 010°38'815.2
2019-Mar-25 06:31N 59°27' E 010°34'815.1
2019-Mar-25 06:01N 59°19' E 010°36'815.4
2019-Mar-25 05:31N 59°12' E 010°39'815.3
2019-Mar-25 05:01N 59°04' E 010°40'816.0
2019-Mar-25 04:31N 58°56' E 010°41'815.2
2019-Mar-25 04:01N 58°49' E 010°42'815.0
2019-Mar-25 03:29N 58°41' E 010°46'815.9
2019-Mar-25 03:00N 58°34' E 010°50'816.0
2019-Mar-25 02:30N 58°26' E 010°55'816.3
2019-Mar-25 02:00N 58°18' E 011°00'815.7
2019-Mar-25 01:30N 58°11' E 011°05'816.8
2019-Mar-25 01:01N 58°03' E 011°10'816.0
2019-Mar-25 00:31N 57°55' E 011°15'816.3
2019-Mar-25 00:01N 57°48' E 011°20'816.0
2019-Mar-24 23:31N 57°40' E 011°25'816.6
2019-Mar-24 23:01N 57°33' E 011°31'816.2
2019-Mar-24 22:31N 57°26' E 011°38'816.4
2019-Mar-24 22:01N 57°19' E 011°46'816.0
2019-Mar-24 21:31N 57°12' E 011°54'815.8
2019-Mar-24 21:01N 57°05' E 011°60'6016.0
2019-Mar-24 17:16N 56°07' E 012°33'416.6
2019-Mar-24 17:01N 56°04' E 012°38'816.4
2019-Mar-24 16:31N 55°57' E 012°43'816.1
2019-Mar-24 16:01N 55°49' E 012°43'714.0
2019-Mar-24 15:30N 55°42' E 012°37'1 1.1
2019-Mar-24 14:59N 55°42' E 012°36'0 0.0
2019-Mar-24 14:29N 55°42' E 012°36'0 0.0
2019-Mar-24 13:59N 55°42' E 012°36'0 0.0
2019-Mar-24 13:29N 55°42' E 012°36'0 0.0
2019-Mar-24 12:59N 55°42' E 012°36'0 0.0
2019-Mar-24 12:29N 55°42' E 012°36'0 0.0
2019-Mar-24 11:59N 55°42' E 012°36'0 0.0
2019-Mar-24 11:26N 55°42' E 012°36'0 0.0
2019-Mar-24 10:59N 55°42' E 012°36'0 0.0
2019-Mar-24 10:29N 55°42' E 012°36'0 0.0
2019-Mar-24 09:59N 55°42' E 012°36'0 0.0
2019-Mar-24 09:29N 55°42' E 012°36'0 0.0
2019-Mar-24 08:50N 55°42' E 012°36'0 1.0
2019-Mar-24 08:30N 55°42' E 012°36'611.6
2019-Mar-24 08:01N 55°47' E 012°42'815.0
2019-Mar-24 07:30N 55°55' E 012°39'815.2
2019-Mar-24 07:01N 56°02' E 012°39'815.6
2019-Mar-24 06:31N 56°08' E 012°30'815.9
2019-Mar-24 06:01N 56°15' E 012°25'6115.8
2019-Mar-24 02:09N 57°14' E 011°52'216.5
2019-Mar-24 02:01N 57°16' E 011°49'816.4
2019-Mar-24 01:31N 57°22' E 011°39'816.3
2019-Mar-24 01:01N 57°28' E 011°30'816.7
2019-Mar-24 00:31N 57°35' E 011°20'816.8
2019-Mar-24 00:01N 57°42' E 011°12'917.2
2019-Mar-23 23:30N 57°50' E 011°06'816.8
2019-Mar-23 23:01N 57°58' E 011°01'816.2
2019-Mar-23 22:31N 58°05' E 010°55'816.6
2019-Mar-23 22:00N 58°13' E 010°50'816.6
2019-Mar-23 21:30N 58°21' E 010°45'816.3
2019-Mar-23 21:00N 58°29' E 010°40'816.2
2019-Mar-23 20:30N 58°37' E 010°38'816.3
2019-Mar-23 20:00N 58°45' E 010°37'816.9
2019-Mar-23 19:30N 58°53' E 010°37'917.1
2019-Mar-23 19:00N 59°02' E 010°38'917.2
2019-Mar-23 18:30N 59°10' E 010°38'917.2
2019-Mar-23 18:00N 59°19' E 010°36'816.9
2019-Mar-23 17:31N 59°27' E 010°33'816.7
2019-Mar-23 17:01N 59°35' E 010°38'815.4
2019-Mar-23 16:30N 59°43' E 010°35'816.2
2019-Mar-23 16:00N 59°51' E 010°36'610.9
2019-Mar-23 15:30N 59°54' E 010°45'0 0.0
2019-Mar-23 14:59N 59°54' E 010°45'0 0.0
2019-Mar-23 14:29N 59°54' E 010°45'0 0.0
2019-Mar-23 13:59N 59°54' E 010°45'0 0.0
2019-Mar-23 13:29N 59°54' E 010°45'0 0.0
2019-Mar-23 12:59N 59°54' E 010°45'0 0.0
2019-Mar-23 12:29N 59°54' E 010°45'0 0.0
2019-Mar-23 11:59N 59°54' E 010°45'0 0.0
2019-Mar-23 11:29N 59°54' E 010°45'0 0.0
2019-Mar-23 10:59N 59°54' E 010°45'0 0.0
2019-Mar-23 10:29N 59°54' E 010°45'0 0.0
2019-Mar-23 09:59N 59°54' E 010°45'0 0.0
2019-Mar-23 09:29N 59°54' E 010°45'0 0.0
2019-Mar-23 08:59N 59°54' E 010°45'0 0.2
2019-Mar-23 08:30N 59°54' E 010°45'713.2
2019-Mar-23 08:01N 59°49' E 010°35'815.6
2019-Mar-23 07:30N 59°42' E 010°36'714.0
2019-Mar-23 07:00N 59°35' E 010°38'815.1
2019-Mar-23 06:30N 59°27' E 010°34'815.2
2019-Mar-23 06:00N 59°20' E 010°36'816.5
2019-Mar-23 05:30N 59°12' E 010°39'815.9
2019-Mar-23 05:00N 59°04' E 010°41'815.5
2019-Mar-23 04:30N 58°56' E 010°42'714.9
2019-Mar-23 04:00N 58°49' E 010°44'815.6
2019-Mar-23 03:30N 58°41' E 010°46'815.7
2019-Mar-23 03:00N 58°34' E 010°51'816.0
2019-Mar-23 02:30N 58°26' E 010°56'816.2
2019-Mar-23 02:00N 58°18' E 011°01'816.3
2019-Mar-23 01:30N 58°11' E 011°06'816.2
2019-Mar-23 01:00N 58°03' E 011°10'815.8
2019-Mar-23 00:30N 57°56' E 011°15'816.4
2019-Mar-23 00:00N 57°48' E 011°20'816.2
2019-Mar-22 23:30N 57°40' E 011°25'816.6
2019-Mar-22 23:00N 57°33' E 011°31'816.2
2019-Mar-22 22:30N 57°25' E 011°38'816.1
2019-Mar-22 22:00N 57°19' E 011°46'815.9
2019-Mar-22 21:30N 57°12' E 011°54'815.8
2019-Mar-22 21:00N 57°04' E 011°60'6016.6
2019-Mar-22 17:25N 56°08' E 012°32'718.1
2019-Mar-22 17:01N 56°02' E 012°40'917.1
2019-Mar-22 16:31N 55°54' E 012°44'816.3
2019-Mar-22 16:01N 55°46' E 012°41'5 9.7
2019-Mar-22 15:30N 55°42' E 012°36'0 0.0
2019-Mar-22 14:59N 55°42' E 012°36'0 0.0
2019-Mar-22 14:29N 55°42' E 012°36'0 0.0
2019-Mar-22 13:59N 55°42' E 012°36'0 0.0
2019-Mar-22 13:26N 55°42' E 012°36'0 0.0
2019-Mar-22 12:59N 55°42' E 012°36'0 0.0
2019-Mar-22 12:29N 55°42' E 012°36'0 0.0
2019-Mar-22 11:59N 55°42' E 012°36'0 0.0
2019-Mar-22 11:23N 55°42' E 012°36'0 0.0
2019-Mar-22 10:59N 55°42' E 012°36'0 0.0
2019-Mar-22 10:29N 55°42' E 012°36'0 0.0
2019-Mar-22 09:56N 55°42' E 012°36'0 0.0
2019-Mar-22 09:29N 55°42' E 012°36'0 0.0
2019-Mar-22 08:59N 55°42' E 012°36'0 0.8
2019-Mar-22 08:31N 55°42' E 012°36'510.4
2019-Mar-22 08:00N 55°47' E 012°41'714.7
2019-Mar-22 07:31N 55°54' E 012°39'815.0
2019-Mar-22 07:00N 56°01' E 012°40'713.3
2019-Mar-22 06:30N 56°07' E 012°32'713.8
2019-Mar-22 06:00N 56°13' E 012°27'5315.0
2019-Mar-22 02:27N 57°04' E 011°60'715.9
2019-Mar-22 02:00N 57°11' E 011°55'815.5
2019-Mar-22 01:31N 57°17' E 011°48'815.9
2019-Mar-22 01:00N 57°24' E 011°39'816.2
2019-Mar-22 00:30N 57°31' E 011°31'815.9
2019-Mar-22 00:00N 57°37' E 011°23'917.4
2019-Mar-21 23:30N 57°44' E 011°13'917.8
2019-Mar-21 23:01N 57°52' E 011°04'917.5
2019-Mar-21 22:31N 57°60' E 010°58'917.7
2019-Mar-21 22:00N 58°08' E 010°53'917.6
2019-Mar-21 21:30N 58°17' E 010°47'917.6
2019-Mar-21 21:00N 58°25' E 010°42'917.3
2019-Mar-21 20:30N 58°33' E 010°39'917.4
2019-Mar-21 20:00N 58°42' E 010°38'917.3
2019-Mar-21 19:30N 58°51' E 010°37'918.0
2019-Mar-21 19:00N 58°60' E 010°38'918.4
2019-Mar-21 18:30N 59°09' E 010°38'918.5
2019-Mar-21 18:00N 59°18' E 010°36'918.4
2019-Mar-21 17:30N 59°27' E 010°33'917.3
2019-Mar-21 17:00N 59°35' E 010°38'815.4
2019-Mar-21 16:30N 59°43' E 010°35'713.6
2019-Mar-21 16:00N 59°50' E 010°34'713.3
2019-Mar-21 15:30N 59°54' E 010°45'0 0.2
2019-Mar-21 14:58N 59°54' E 010°45'0 0.0
2019-Mar-21 14:28N 59°54' E 010°45'0 0.0
2019-Mar-21 13:58N 59°54' E 010°45'0 0.0
2019-Mar-21 13:28N 59°54' E 010°45'0 0.0
2019-Mar-21 12:58N 59°54' E 010°45'0 0.0
2019-Mar-21 12:28N 59°54' E 010°45'0 0.0
2019-Mar-21 11:58N 59°54' E 010°45'0 0.0
2019-Mar-21 11:28N 59°54' E 010°45'0 0.0
2019-Mar-21 10:58N 59°54' E 010°45'0 0.0
2019-Mar-21 10:28N 59°54' E 010°45'0 0.0
2019-Mar-21 09:58N 59°54' E 010°45'0 0.0
2019-Mar-21 09:28N 59°54' E 010°45'0 0.0
2019-Mar-21 09:00N 59°54' E 010°45'0 0.4
2019-Mar-21 08:30N 59°54' E 010°44'612.6
2019-Mar-21 08:00N 59°50' E 010°36'814.7
2019-Mar-21 07:30N 59°42' E 010°36'613.0
2019-Mar-21 07:00N 59°36' E 010°38'714.6
2019-Mar-21 06:30N 59°29' E 010°34'816.1
2019-Mar-21 06:00N 59°21' E 010°35'816.0
2019-Mar-21 05:30N 59°13' E 010°38'815.9
2019-Mar-21 05:00N 59°05' E 010°40'815.8
2019-Mar-21 04:30N 58°57' E 010°42'815.4
2019-Mar-21 04:00N 58°50' E 010°44'815.5
2019-Mar-21 03:30N 58°42' E 010°45'815.6
2019-Mar-21 03:00N 58°34' E 010°50'815.8
2019-Mar-21 02:30N 58°27' E 010°55'816.1
2019-Mar-21 02:00N 58°19' E 010°60'816.2
2019-Mar-21 01:30N 58°12' E 011°05'816.4
2019-Mar-21 01:00N 58°04' E 011°09'815.6
2019-Mar-21 00:30N 57°57' E 011°14'815.7
2019-Mar-21 00:00N 57°49' E 011°19'815.8
2019-Mar-20 23:30N 57°42' E 011°26'816.5
2019-Mar-20 23:00N 57°35' E 011°32'816.4
2019-Mar-20 22:30N 57°27' E 011°39'816.2
2019-Mar-20 22:00N 57°20' E 011°46'815.9
2019-Mar-20 21:30N 57°13' E 011°53'816.1
2019-Mar-20 21:00N 57°06' E 011°59'815.9
2019-Mar-20 20:30N 56°58' E 012°04'5516.2
2019-Mar-20 17:06N 56°06' E 012°35'217.2
2019-Mar-20 17:00N 56°05' E 012°37'816.6
2019-Mar-20 16:30N 55°57' E 012°43'817.0
2019-Mar-20 16:00N 55°49' E 012°43'714.3
2019-Mar-20 15:30N 55°42' E 012°36'0 0.7
2019-Mar-20 14:53N 55°42' E 012°36'0 0.0
2019-Mar-20 14:29N 55°42' E 012°36'0 0.0
2019-Mar-20 13:59N 55°42' E 012°36'0 0.0
2019-Mar-20 13:29N 55°42' E 012°36'0 0.0
2019-Mar-20 12:59N 55°42' E 012°36'0 0.0
2019-Mar-20 12:20N 55°42' E 012°36'0 0.0
2019-Mar-20 11:59N 55°42' E 012°36'0 0.0
2019-Mar-20 11:29N 55°42' E 012°36'0 0.0
2019-Mar-20 10:59N 55°42' E 012°36'0 0.0
2019-Mar-20 10:29N 55°42' E 012°36'0 0.0
2019-Mar-20 09:59N 55°42' E 012°36'0 0.0
2019-Mar-20 09:29N 55°42' E 012°36'0 0.0
2019-Mar-20 08:59N 55°42' E 012°36'0 0.7
2019-Mar-20 08:30N 55°42' E 012°36'5 9.3
2019-Mar-20 08:00N 55°46' E 012°41'713.4
2019-Mar-20 07:30N 55°53' E 012°40'714.4
2019-Mar-20 07:00N 55°60' E 012°40'714.3
2019-Mar-20 06:30N 56°06' E 012°33'814.8
2019-Mar-20 06:00N 56°13' E 012°27'6416.3
2019-Mar-20 02:06N 57°13' E 011°53'217.1
2019-Mar-20 02:00N 57°15' E 011°51'917.1
2019-Mar-20 01:30N 57°22' E 011°42'917.2
2019-Mar-20 01:00N 57°29' E 011°33'817.0
2019-Mar-20 00:30N 57°36' E 011°24'816.9
2019-Mar-20 00:00N 57°42' E 011°14'816.7
2019-Mar-19 23:30N 57°49' E 011°05'816.3
2019-Mar-19 23:00N 57°57' E 011°00'816.6
2019-Mar-19 22:30N 58°05' E 010°55'816.7
2019-Mar-19 22:00N 58°13' E 010°50'816.6
2019-Mar-19 21:29N 58°21' E 010°45'816.3
2019-Mar-19 21:00N 58°28' E 010°40'816.1
2019-Mar-19 20:30N 58°36' E 010°39'816.2
2019-Mar-19 20:00N 58°44' E 010°37'816.4
2019-Mar-19 19:30N 58°53' E 010°37'917.1
2019-Mar-19 19:00N 59°01' E 010°38'917.2
2019-Mar-19 18:30N 59°10' E 010°38'917.4
2019-Mar-19 18:00N 59°18' E 010°36'917.3
2019-Mar-19 17:31N 59°27' E 010°33'816.7
2019-Mar-19 17:00N 59°35' E 010°38'815.1
2019-Mar-19 16:30N 59°42' E 010°35'815.9
2019-Mar-19 16:01N 59°50' E 010°35'612.3
2019-Mar-19 15:30N 59°54' E 010°45'0 0.1
2019-Mar-19 15:00N 59°54' E 010°45'0 0.0
2019-Mar-19 14:29N 59°54' E 010°45'0 0.0
2019-Mar-19 13:59N 59°54' E 010°45'0 0.0
2019-Mar-19 13:29N 59°54' E 010°45'0 0.0
2019-Mar-19 12:59N 59°54' E 010°45'0 0.0
2019-Mar-19 12:29N 59°54' E 010°45'0 0.0
2019-Mar-19 11:59N 59°54' E 010°45'0 0.0
2019-Mar-19 11:29N 59°54' E 010°45'0 0.0
2019-Mar-19 10:59N 59°54' E 010°45'0 0.0
2019-Mar-19 10:29N 59°54' E 010°45'0 0.0
2019-Mar-19 09:59N 59°54' E 010°45'0 0.0
2019-Mar-19 09:29N 59°54' E 010°45'0 0.0
2019-Mar-19 08:59N 59°54' E 010°45'0 0.3
2019-Mar-19 08:30N 59°54' E 010°45'612.6
2019-Mar-19 08:01N 59°50' E 010°36'815.2
2019-Mar-19 07:30N 59°42' E 010°36'612.7
2019-Mar-19 07:00N 59°36' E 010°38'713.4
2019-Mar-19 06:30N 59°29' E 010°35'713.4
2019-Mar-19 06:00N 59°23' E 010°35'713.3
2019-Mar-19 05:30N 59°16' E 010°37'713.6
2019-Mar-19 05:00N 59°10' E 010°39'713.7
2019-Mar-19 04:31N 59°03' E 010°40'714.1
2019-Mar-19 04:00N 58°56' E 010°41'815.1
2019-Mar-19 03:30N 58°48' E 010°42'815.9
2019-Mar-19 03:00N 58°40' E 010°46'816.8
2019-Mar-19 02:30N 58°33' E 010°51'918.1
2019-Mar-19 02:00N 58°24' E 010°57'918.5
2019-Mar-19 01:31N 58°15' E 011°03'918.2
2019-Mar-19 01:00N 58°07' E 011°09'917.9
2019-Mar-19 00:30N 57°58' E 011°13'917.5
2019-Mar-19 00:01N 57°50' E 011°19'816.9
2019-Mar-18 23:31N 57°42' E 011°25'917.3
2019-Mar-18 23:00N 57°34' E 011°32'917.5
2019-Mar-18 22:30N 57°26' E 011°39'917.5
2019-Mar-18 22:00N 57°19' E 011°46'917.3
2019-Mar-18 21:30N 57°11' E 011°54'917.4
2019-Mar-18 21:00N 57°03' E 011°59'5816.9
2019-Mar-18 17:34N 56°07' E 012°33'115.8
2019-Mar-18 17:30N 56°07' E 012°34'714.2
2019-Mar-18 17:00N 56°01' E 012°41'714.1
2019-Mar-18 16:30N 55°54' E 012°44'714.7
2019-Mar-18 16:00N 55°47' E 012°42'611.9
2019-Mar-18 15:30N 55°42' E 012°36'0 0.2
2019-Mar-18 14:57N 55°42' E 012°36'0 0.0
2019-Mar-18 14:27N 55°42' E 012°36'0 0.0
2019-Mar-18 13:57N 55°42' E 012°36'0 0.0
2019-Mar-18 13:27N 55°42' E 012°36'0 0.0
2019-Mar-18 12:57N 55°42' E 012°36'0 0.0
2019-Mar-18 12:27N 55°42' E 012°36'0 0.0
2019-Mar-18 11:57N 55°42' E 012°36'0 0.0
2019-Mar-18 11:27N 55°42' E 012°36'0 0.0
2019-Mar-18 10:57N 55°42' E 012°36'0 0.0
2019-Mar-18 10:27N 55°42' E 012°36'0 0.0
2019-Mar-18 09:57N 55°42' E 012°36'0 0.0
2019-Mar-18 09:27N 55°42' E 012°36'0 0.7
2019-Mar-18 09:00N 55°42' E 012°36'612.2
2019-Mar-18 08:31N 55°48' E 012°42'815.0
2019-Mar-18 08:01N 55°55' E 012°39'917.1
2019-Mar-18 07:31N 56°03' E 012°39'917.1
2019-Mar-18 07:00N 56°10' E 012°29'6719.0
2019-Mar-18 03:30N 57°14' E 011°52'1019.7
2019-Mar-18 03:00N 57°21' E 011°41'1019.7
2019-Mar-18 02:31N 57°28' E 011°29'1019.0
2019-Mar-18 02:01N 57°35' E 011°16'918.7
2019-Mar-18 01:31N 57°42' E 011°04'918.9
2019-Mar-18 01:01N 57°49' E 010°52'816.9
2019-Mar-18 00:31N 57°57' E 010°47'816.1
2019-Mar-18 00:00N 58°05' E 010°45'815.6
2019-Mar-17 23:30N 58°12' E 010°42'815.5
2019-Mar-17 23:00N 58°20' E 010°39'815.3
2019-Mar-17 22:30N 58°28' E 010°37'714.4
2019-Mar-17 22:00N 58°35' E 010°35'713.3
2019-Mar-17 21:30N 58°41' E 010°36'713.6
2019-Mar-17 21:00N 58°48' E 010°37'713.6
2019-Mar-17 20:30N 58°55' E 010°38'714.0
2019-Mar-17 20:00N 59°02' E 010°38'713.8
2019-Mar-17 19:31N 59°09' E 010°38'611.1
2019-Mar-17 19:01N 59°14' E 010°37'611.6
2019-Mar-17 18:31N 59°20' E 010°35'611.7
2019-Mar-17 18:01N 59°26' E 010°33'611.6
2019-Mar-17 17:31N 59°31' E 010°35'611.8
2019-Mar-17 17:00N 59°37' E 010°37'612.3
2019-Mar-17 16:30N 59°43' E 010°34'612.9
2019-Mar-17 16:00N 59°50' E 010°34'612.7
2019-Mar-17 15:30N 59°54' E 010°44'0 0.9
2019-Mar-17 15:00N 59°54' E 010°45'0 0.0
2019-Mar-17 14:30N 59°54' E 010°45'0 0.0
2019-Mar-17 14:00N 59°54' E 010°45'0 0.0
2019-Mar-17 13:30N 59°54' E 010°45'0 0.0
2019-Mar-17 13:00N 59°54' E 010°45'0 0.0
2019-Mar-17 12:30N 59°54' E 010°45'0 0.0
2019-Mar-17 12:00N 59°54' E 010°45'0 0.0
2019-Mar-17 11:30N 59°54' E 010°45'0 0.0
2019-Mar-17 11:00N 59°54' E 010°45'0 0.0
2019-Mar-17 10:30N 59°54' E 010°45'0 0.0
2019-Mar-17 10:00N 59°54' E 010°45'0 0.0
2019-Mar-17 09:30N 59°54' E 010°45'0 0.0
2019-Mar-17 09:00N 59°54' E 010°45'0 0.3
2019-Mar-17 08:30N 59°54' E 010°44'613.1
2019-Mar-17 08:00N 59°49' E 010°35'815.2
2019-Mar-17 07:30N 59°42' E 010°36'714.5
2019-Mar-17 07:00N 59°35' E 010°38'816.1
2019-Mar-17 06:30N 59°27' E 010°34'816.2
2019-Mar-17 06:00N 59°19' E 010°36'815.9
2019-Mar-17 05:30N 59°11' E 010°39'815.3
2019-Mar-17 05:00N 59°04' E 010°41'815.3
2019-Mar-17 04:30N 58°56' E 010°42'816.0
2019-Mar-17 04:00N 58°48' E 010°44'816.3
2019-Mar-17 03:30N 58°40' E 010°47'917.1
2019-Mar-17 03:00N 58°32' E 010°52'917.1
2019-Mar-17 02:30N 58°24' E 010°57'816.7
2019-Mar-17 02:00N 58°16' E 011°02'816.3
2019-Mar-17 01:30N 58°08' E 011°07'917.6
2019-Mar-17 01:00N 57°60' E 011°12'816.9
2019-Mar-17 00:30N 57°52' E 011°18'815.6
2019-Mar-17 00:00N 57°45' E 011°23'816.0
2019-Mar-16 23:30N 57°38' E 011°30'816.5
2019-Mar-16 23:00N 57°30' E 011°37'816.5
2019-Mar-16 22:30N 57°23' E 011°44'816.0
2019-Mar-16 22:00N 57°16' E 011°51'816.5
2019-Mar-16 21:30N 57°08' E 011°56'5916.0
2019-Mar-16 17:48N 56°11' E 012°29'516.5
2019-Mar-16 17:30N 56°07' E 012°33'815.4
2019-Mar-16 17:00N 56°01' E 012°41'815.4
2019-Mar-16 16:30N 55°53' E 012°44'815.2
2019-Mar-16 16:00N 55°46' E 012°42'5 1.9
2019-Mar-16 13:27N 55°42' E 012°36'0 0.0
2019-Mar-16 12:57N 55°42' E 012°36'0 0.0
2019-Mar-16 12:27N 55°42' E 012°36'0 0.0
2019-Mar-16 11:51N 55°42' E 012°36'0 0.0
2019-Mar-16 10:57N 55°42' E 012°36'0 0.0
2019-Mar-16 09:48N 55°42' E 012°36'0 0.0
2019-Mar-16 09:09N 55°42' E 012°36'0 0.0
2019-Mar-16 08:57N 55°42' E 012°36'0 0.7
2019-Mar-16 08:30N 55°42' E 012°36'510.3
2019-Mar-16 08:00N 55°47' E 012°41'714.8
2019-Mar-16 07:30N 55°54' E 012°39'815.6
2019-Mar-16 07:00N 56°02' E 012°39'815.5
2019-Mar-16 06:30N 56°08' E 012°30'916.1
2019-Mar-16 05:56N 56°16' E 012°24'6016.2
2019-Mar-16 02:15N 57°14' E 011°54'417.1
2019-Mar-16 02:00N 57°17' E 011°50'816.8
2019-Mar-16 01:30N 57°25' E 011°42'816.2
2019-Mar-16 01:00N 57°32' E 011°36'815.9
2019-Mar-16 00:30N 57°39' E 011°29'816.2
2019-Mar-16 00:00N 57°46' E 011°21'917.4
2019-Mar-15 23:30N 57°53' E 011°13'  

Dump ship's entire track history